createdAt,value
2023-09-04T00:00:44.580Z,13.20
2023-09-04T00:06:46.491Z,13.07
2023-09-04T00:12:48.420Z,12.88
2023-09-04T00:18:50.435Z,12.93
2023-09-04T00:24:52.383Z,12.80
2023-09-04T00:30:55.361Z,12.77
2023-09-04T00:36:57.281Z,12.68
2023-09-04T00:42:59.238Z,12.59
2023-09-04T00:49:01.231Z,12.54
2023-09-04T00:55:06.243Z,12.64
2023-09-04T01:01:08.368Z,12.70
2023-09-04T01:07:10.315Z,12.57
2023-09-04T01:13:34.618Z,12.50
2023-09-04T01:19:40.401Z,12.28
2023-09-04T01:25:53.616Z,12.21
2023-09-04T01:32:02.549Z,12.12
2023-09-04T01:38:05.570Z,11.88
2023-09-04T01:44:08.114Z,11.93
2023-09-04T01:50:10.563Z,11.94
2023-09-04T01:56:12.609Z,11.79
2023-09-04T02:02:14.529Z,11.84
2023-09-04T02:08:16.707Z,11.85
2023-09-04T02:14:18.658Z,11.94
2023-09-04T02:20:20.581Z,12.06
2023-09-04T02:26:22.601Z,12.05
2023-09-04T02:32:24.559Z,12.10
2023-09-04T02:38:26.522Z,12.07
2023-09-04T02:44:30.391Z,12.00
2023-09-04T02:50:32.327Z,11.85
2023-09-04T02:56:34.277Z,11.78
2023-09-04T03:02:36.936Z,11.55
2023-09-04T03:08:42.015Z,11.57
2023-09-04T03:14:44.035Z,11.61
2023-09-04T03:20:46.067Z,11.57
2023-09-04T03:26:47.987Z,11.48
2023-09-04T03:32:50.541Z,11.50
2023-09-04T03:38:52.752Z,11.28
2023-09-04T03:44:54.698Z,11.23
2023-09-04T03:51:00.920Z,11.24
2023-09-04T03:57:03.366Z,11.11
2023-09-04T04:03:05.555Z,11.15
2023-09-04T04:09:08.182Z,11.10
2023-09-04T04:15:11.218Z,11.13
2023-09-04T04:21:13.699Z,11.01
2023-09-04T04:27:18.811Z,10.79
2023-09-04T04:33:20.817Z,10.73
2023-09-04T04:39:22.859Z,10.69
2023-09-04T04:45:25.071Z,10.54
2023-09-04T04:51:27.009Z,10.61
2023-09-04T04:57:29.323Z,10.53
2023-09-04T05:03:31.318Z,10.58
2023-09-04T05:09:33.248Z,10.79
2023-09-04T05:15:35.256Z,10.84
2023-09-04T05:21:50.313Z,10.87
2023-09-04T05:27:57.776Z,10.85
2023-09-04T05:33:59.775Z,11.08
2023-09-04T05:40:01.799Z,11.28
2023-09-04T05:46:03.954Z,11.42
2023-09-04T05:52:06.348Z,11.48
2023-09-04T05:58:08.290Z,11.46
2023-09-04T06:04:12.235Z,11.55
2023-09-04T06:10:14.358Z,11.83
2023-09-04T06:16:22.670Z,11.93
2023-09-04T06:22:24.627Z,12.37
2023-09-04T06:28:27.584Z,12.59
2023-09-04T06:34:29.855Z,12.79
2023-09-04T06:40:31.853Z,13.13
2023-09-04T06:46:34.361Z,15.21
2023-09-04T06:52:36.891Z,22.13
2023-09-04T06:58:38.860Z,26.83
2023-09-04T07:04:40.864Z,29.26
2023-09-04T07:10:43.791Z,28.61
2023-09-04T07:16:57.717Z,24.62
2023-09-04T07:23:19.025Z,21.78
2023-09-04T07:29:23.186Z,20.59
2023-09-04T07:35:25.130Z,20.31
2023-09-04T07:41:27.111Z,20.07
2023-09-04T07:47:29.115Z,20.02
2023-09-04T07:53:31.058Z,20.25
2023-09-04T07:59:33.045Z,20.25
2023-09-04T08:05:35.482Z,20.71
2023-09-04T08:11:37.495Z,21.13
2023-09-04T08:17:42.286Z,21.33
2023-09-04T08:23:44.465Z,21.80
2023-09-04T08:29:46.546Z,21.94
2023-09-04T08:35:48.592Z,22.58
2023-09-04T08:41:51.596Z,23.19
2023-09-04T08:47:56.164Z,23.31
2023-09-04T08:54:00.986Z,23.97
2023-09-04T09:00:04.445Z,24.38
2023-09-04T09:06:06.529Z,25.01
2023-09-04T09:12:08.582Z,25.52
2023-09-04T09:18:10.562Z,25.73
2023-09-04T09:24:20.308Z,26.29
2023-09-04T09:30:22.328Z,27.46
2023-09-04T09:36:25.847Z,28.74
2023-09-04T09:42:27.828Z,29.82
2023-09-04T09:48:32.205Z,31.15
2023-09-04T09:54:39.267Z,31.63
2023-09-04T10:00:42.406Z,31.97
2023-09-04T10:06:46.024Z,32.27
2023-09-04T10:12:53.203Z,33.98
2023-09-04T10:18:58.037Z,35.27
2023-09-04T10:25:20.632Z,35.99
2023-09-04T10:31:25.575Z,36.38
2023-09-04T10:37:30.507Z,38.03
2023-09-04T10:43:43.044Z,39.20
2023-09-04T10:49:46.223Z,39.24
2023-09-04T10:56:11.837Z,40.35
2023-09-04T11:02:35.473Z,38.38
2023-09-04T11:08:48.907Z,39.27
2023-09-04T11:14:57.251Z,39.50
2023-09-04T11:21:01.513Z,40.65
2023-09-04T11:27:04.607Z,40.70
2023-09-04T11:33:06.639Z,40.17
2023-09-04T11:39:13.967Z,40.37
2023-09-04T11:45:16.169Z,39.95
2023-09-04T11:51:18.176Z,39.81
2023-09-04T11:57:20.420Z,41.60
2023-09-04T12:03:22.410Z,40.33
2023-09-04T12:09:24.692Z,41.12
2023-09-04T12:15:28.588Z,42.10
2023-09-04T12:21:30.552Z,42.14
2023-09-04T12:27:35.121Z,40.57
2023-09-04T12:33:44.275Z,40.15
2023-09-04T12:39:46.360Z,40.73
2023-09-04T12:45:48.428Z,40.74
2023-09-04T12:51:50.495Z,41.22
2023-09-04T12:58:01.404Z,40.17
2023-09-04T13:04:04.444Z,40.38
2023-09-04T13:10:07.253Z,40.76
2023-09-04T13:16:09.512Z,41.82
2023-09-04T13:22:11.494Z,42.17
2023-09-04T13:28:13.450Z,43.45
2023-09-04T13:34:15.396Z,43.66
2023-09-04T13:40:17.446Z,43.95
2023-09-04T13:46:19.531Z,44.14
2023-09-04T13:52:23.882Z,43.09
2023-09-04T13:58:26.715Z,43.48
2023-09-04T14:04:28.654Z,42.82
2023-09-04T14:10:31.031Z,41.90
2023-09-04T14:16:33.138Z,41.97
2023-09-04T14:22:35.138Z,42.51
2023-09-04T14:28:37.084Z,42.85
2023-09-04T14:34:39.043Z,43.15
2023-09-04T14:40:45.939Z,42.33
2023-09-04T14:46:48.085Z,43.45
2023-09-04T14:52:52.825Z,44.09
2023-09-04T14:58:55.783Z,42.71
2023-09-04T15:04:57.732Z,42.88
2023-09-04T15:10:59.701Z,42.20
2023-09-04T15:17:01.656Z,41.61
2023-09-04T15:23:04.034Z,42.12
2023-09-04T15:29:06.030Z,42.42
2023-09-04T15:35:08.371Z,42.76
2023-09-04T15:41:10.360Z,42.79
2023-09-04T15:47:14.161Z,42.68
2023-09-04T15:53:16.653Z,41.89
2023-09-04T15:59:18.560Z,41.76
2023-09-04T16:05:20.534Z,42.23
2023-09-04T16:11:22.633Z,42.56
2023-09-04T16:17:24.712Z,42.05
2023-09-04T16:23:26.773Z,42.09
2023-09-04T16:29:28.752Z,41.53
2023-09-04T16:35:30.738Z,40.83
2023-09-04T16:41:32.683Z,39.73
2023-09-04T16:47:34.656Z,39.48
2023-09-04T16:53:36.665Z,39.45
2023-09-04T16:59:38.614Z,38.07
2023-09-04T17:05:40.575Z,37.64
2023-09-04T17:11:42.631Z,36.02
2023-09-04T17:17:45.109Z,33.07
2023-09-04T17:23:47.050Z,30.92
2023-09-04T17:29:49.021Z,29.52
2023-09-04T17:35:50.982Z,28.22
2023-09-04T17:41:54.254Z,26.13
2023-09-04T17:47:56.322Z,25.08
2023-09-04T17:53:58.345Z,23.92
2023-09-04T18:00:00.303Z,23.04
2023-09-04T18:06:02.249Z,22.34
2023-09-04T18:12:04.774Z,21.73
2023-09-04T18:18:06.812Z,21.13
2023-09-04T18:24:08.963Z,20.95
2023-09-04T18:30:13.580Z,20.42
2023-09-04T18:36:16.710Z,20.19
2023-09-04T18:42:18.697Z,19.96
2023-09-04T18:48:20.623Z,19.61
2023-09-04T18:54:22.619Z,19.54
2023-09-04T19:00:24.789Z,19.38
2023-09-04T19:06:26.798Z,19.25
2023-09-04T19:12:28.772Z,19.21
2023-09-04T19:18:30.767Z,19.04
2023-09-04T19:24:32.801Z,18.92
2023-09-04T19:30:34.877Z,18.72
2023-09-04T19:36:36.909Z,18.54
2023-09-04T19:42:38.856Z,18.64
2023-09-04T19:48:40.791Z,18.51
2023-09-04T19:54:42.753Z,18.43
2023-09-04T20:00:45.142Z,18.35
2023-09-04T20:06:47.093Z,18.38
2023-09-04T20:12:49.493Z,18.35
2023-09-04T20:18:51.455Z,18.39
2023-09-04T20:24:54.164Z,18.37
2023-09-04T20:30:57.215Z,18.33
2023-09-04T20:37:03.088Z,18.33
2023-09-04T20:43:05.126Z,18.53
2023-09-04T20:49:07.069Z,18.69
2023-09-04T20:55:09.245Z,18.82
2023-09-04T21:01:11.271Z,18.64
2023-09-04T21:07:13.181Z,18.70
2023-09-04T21:13:33.380Z,18.68
2023-09-04T21:19:53.947Z,18.75
2023-09-04T21:26:15.309Z,18.80
2023-09-04T21:32:36.068Z,18.69
2023-09-04T21:38:56.545Z,18.57
2023-09-04T21:45:17.054Z,18.54
2023-09-04T21:51:37.254Z,18.49
2023-09-04T21:57:58.004Z,18.45
2023-09-04T22:04:18.771Z,18.25
2023-09-04T22:10:39.248Z,18.20
2023-09-04T22:17:02.215Z,18.12
2023-09-04T22:23:23.422Z,18.15
2023-09-04T22:29:44.360Z,18.20
2023-09-04T22:36:05.002Z,17.90
2023-09-04T22:42:25.515Z,17.90
2023-09-04T22:48:45.745Z,17.91
2023-09-04T22:55:06.165Z,18.12
2023-09-04T23:01:31.205Z,17.60
2023-09-04T23:07:52.092Z,17.61
2023-09-04T23:14:12.750Z,17.55
2023-09-04T23:20:33.222Z,17.17
2023-09-04T23:26:46.421Z,17.22
2023-09-04T23:33:07.002Z,17.10
2023-09-04T23:39:10.388Z,17.23
2023-09-04T23:45:13.124Z,17.33
2023-09-04T23:51:15.026Z,17.11
2023-09-04T23:57:16.936Z,17.02
